Thunder radar more information blitzortung!


Radar de pluja more information rain snow radar


Visita la nostra xarxa de llocs de meteo:

Template documentation
and downloads

And another site



No particular awareness of the weather is required.    There are no Weather-warnings

Pagina Historial Weather Underground text

Diari Resum January 28, 2018 Unitats:  Imperial    Mètric   Tant
« Previous Dia
SegĂźent Dia »
Diari Setmana Mensual Anual Personalitzada
  Maxima: Minima: Media:
Temperatura: TemperatureC °F 5.5 °F 11.6 °F
Punt de rosada: DewpointC °F 0.8 °F 4.4 °F
Humitat: Humidity % 51 % 61 %
Wind Speed: WindSpeedKMH mph 0.0 mph 3.9 mph
RĂ fegues de vent: WindSpeedGustKMH mph - -
Vent:- - NE
Pression baro: PressurehPa in 1033.7 in -
Precipitacions: 0.0 in    
Historical Graphs
 
 
Dades de taula per January 28, 2018
Temps Temperatura Punt de rosada Pression baro Vent Wind Speed RĂ fegues de vent Humitat Rainfall Rate (Hourly)
TemperatureC °F DewpointC °F PressurehPa in Calm     Humidity % HourlyPrecipMM in
00:00 7.7 °F 2.8 °F 1033.7 in NE 1.9 mph 1.9 mph 71 % 0.0 in
00:05 7.8 °F 3.1 °F 1033.7 in NE 3.7 mph 3.7 mph 72 % 0.0 in
00:10 7.8 °F 3.1 °F 1033.7 in Calm     72 % 0.0 in
00:15 7.9 °F 2.9 °F 1033.7 in NE 1.9 mph 1.9 mph 71 % 0.0 in
00:20 7.9 °F 2.9 °F 1033.7 in NE 2.6 mph 2.6 mph 71 % 0.0 in
00:25 8.0 °F 3.1 °F 1033.7 in Calm     71 % 0.0 in
00:30 6.6 °F 1.5 °F 1034.8 in Calm   1.6 mph 70 % 0.0 in
00:40 6.5 °F 1.4 °F 1034.8 in Calm   1.6 mph 70 % 0.0 in
00:50 6.5 °F 1.4 °F 1034.8 in NE 1.6 mph 1.6 mph 70 % 0.0 in
01:00 6.2 °F 1.1 °F 1034.8 in Calm   1.6 mph 70 % 0.0 in
01:10 6.1 °F 1.1 °F 1034.8 in NE 3.2 mph 4.8 mph 70 % 0.0 in
01:20 6.1 °F 1.2 °F 1034.8 in NE 1.6 mph 3.2 mph 71 % 0.0 in
01:30 6.0 °F 1.1 °F 1034.8 in NE 1.6 mph 1.6 mph 71 % 0.0 in
01:40 5.9 °F 1.1 °F 1035.8 in NE 1.6 mph 4.8 mph 71 % 0.0 in
01:50 5.8 °F 0.9 °F 1034.8 in Calm   1.6 mph 71 % 0.0 in
02:00 5.7 °F 0.8 °F 1034.8 in Calm     71 % 0.0 in
02:10 5.6 °F 0.9 °F 1035.8 in Calm     72 % 0.0 in
02:20 5.6 °F 0.9 °F 1035.8 in Calm   1.6 mph 72 % 0.0 in
02:30 5.5 °F 0.8 °F 1035.8 in Calm   1.6 mph 72 % 0.0 in
02:40 5.6 °F 1.1 °F 1036.8 in Calm   3.2 mph 73 % 0.0 in
02:50 5.9 °F 1.4 °F 1036.8 in Calm   3.2 mph 73 % 0.0 in
03:00 6.0 °F 1.5 °F 1036.8 in NE 3.2 mph 3.2 mph 73 % 0.0 in
03:10 6.1 °F 1.6 °F 1036.8 in NE 3.2 mph 4.8 mph 73 % 0.0 in
03:20 6.5 °F 2.0 °F 1037.8 in NE 1.6 mph 4.8 mph 73 % 0.0 in
03:30 7.2 °F 2.7 °F 1037.8 in Calm   3.2 mph 73 % 0.0 in
03:40 7.7 °F 2.9 °F 1037.8 in NE 3.2 mph 3.2 mph 72 % 0.0 in
03:50 8.3 °F 3.6 °F 1037.8 in NE 1.6 mph 3.2 mph 72 % 0.0 in
04:00 8.2 °F 3.3 °F 1037.8 in NE 1.6 mph 3.2 mph 71 % 0.0 in
04:10 8.6 °F 3.4 °F 1037.8 in NE 1.6 mph 3.2 mph 70 % 0.0 in
04:20 9.4 °F 4.2 °F 1036.8 in NE 1.6 mph 3.2 mph 70 % 0.0 in
04:30 10.4 °F 4.9 °F 1036.8 in Calm     69 % 0.0 in
04:40 10.6 °F 4.9 °F 1037.8 in NE 1.6 mph 1.6 mph 68 % 0.0 in
10:44 10.6 °F 4.7 °F 1037.8 in NE 1.9 mph 5.8 mph 67 % 0.0 in
10:49 10.3 °F 4.0 °F 1037.8 in NE 7.4 mph 7.4 mph 65 % 0.0 in
10:54 10.3 °F 3.8 °F 1037.8 in NE 5.6 mph 5.8 mph 64 % 0.0 in
10:59 10.6 °F 4.3 °F 1037.8 in NE 3.7 mph 4.2 mph 65 % 0.0 in
11:04 10.7 °F 4.2 °F 1038.8 in NE 2.3 mph 4.2 mph 64 % 0.0 in
11:09 10.9 °F 4.3 °F 1038.8 in NE 5.6 mph 5.6 mph 64 % 0.0 in
11:14 11.3 °F 4.7 °F 1038.8 in NE 3.7 mph 3.7 mph 64 % 0.0 in
11:19 11.7 °F 5.1 °F 1038.8 in NE 1.9 mph 1.9 mph 64 % 0.0 in
11:24 12.0 °F 5.4 °F 1038.8 in NE 3.7 mph 3.7 mph 64 % 0.0 in
11:29 11.9 °F 5.1 °F 1038.8 in NE 5.6 mph 5.6 mph 63 % 0.0 in
11:34 12.1 °F 5.3 °F 1038.8 in NE 5.6 mph 5.6 mph 63 % 0.0 in
11:39 12.3 °F 5.4 °F 1038.8 in NE 3.7 mph 3.7 mph 63 % 0.0 in
11:44 12.6 °F 5.7 °F 1038.8 in NE 3.7 mph 3.7 mph 63 % 0.0 in
11:49 12.8 °F 5.9 °F 1038.8 in NE 3.7 mph 3.7 mph 63 % 0.0 in
11:54 13.2 °F 5.8 °F 1038.8 in NE 3.7 mph 3.7 mph 61 % 0.0 in
11:59 13.3 °F 5.9 °F 1038.8 in NE 4.7 mph 4.7 mph 61 % 0.0 in
12:04 13.3 °F 5.9 °F 1037.8 in NE 4.2 mph 4.2 mph 61 % 0.0 in
12:09 13.5 °F 6.1 °F 1037.8 in NE 3.2 mph   61 % 0.0 in
12:14 13.5 °F 5.9 °F 1037.8 in NE 2.3 mph 2.6 mph 60 % 0.0 in
12:19 13.9 °F 6.3 °F 1037.8 in NE 3.7 mph 3.7 mph 60 % 0.0 in
12:24 14.1 °F 6.7 °F 1037.8 in NE 3.7 mph 3.7 mph 61 % 0.0 in
12:29 14.3 °F 6.6 °F 1037.8 in NE 1.9 mph   60 % 0.0 in
12:34 14.6 °F 6.9 °F 1037.8 in NE 1.9 mph 1.9 mph 60 % 0.0 in
12:39 14.6 °F 6.9 °F 1037.8 in NE 3.7 mph 3.7 mph 60 % 0.0 in
12:44 14.6 °F 6.4 °F 1037.8 in NE 3.7 mph 3.7 mph 58 % 0.0 in
12:49 15.0 °F 6.6 °F 1037.8 in NE 3.7 mph 3.7 mph 57 % 0.0 in
12:54 15.4 °F 7.4 °F 1037.8 in Calm     59 % 0.0 in
12:59 15.3 °F 7.1 °F 1037.8 in NE 1.9 mph   58 % 0.0 in
13:04 15.5 °F 7.3 °F 1037.8 in NE 1.9 mph   58 % 0.0 in
13:09 15.8 °F 7.6 °F 1037.8 in NE 4.2 mph 4.2 mph 58 % 0.0 in
13:14 15.7 °F 7.2 °F 1037.8 in NE 3.7 mph 4.2 mph 57 % 0.0 in
13:19 15.6 °F 6.6 °F 1037.8 in NE 3.7 mph 3.7 mph 55 % 0.0 in
13:24 16.1 °F 7.3 °F 1037.8 in NE 2.3 mph   56 % 0.0 in
13:29 15.7 °F 6.7 °F 1037.8 in NE 5.0 mph 5.0 mph 55 % 0.0 in
13:34 15.7 °F 6.7 °F 1037.8 in NE 9.3 mph 9.3 mph 55 % 0.0 in
13:39 15.8 °F 6.5 °F 1037.8 in NE 7.4 mph 7.4 mph 54 % 0.0 in
13:44 16.1 °F 7.1 °F 1037.8 in NE 1.9 mph 2.3 mph 55 % 0.0 in
13:49 16.2 °F 6.9 °F 1037.8 in NE 8.7 mph 8.7 mph 54 % 0.0 in
13:54 15.7 °F 6.4 °F 1037.8 in NE 9.3 mph 9.3 mph 54 % 0.0 in
13:59 15.5 °F 5.9 °F 1037.8 in NE 5.6 mph 5.6 mph 53 % 0.0 in
14:04 16.0 °F 6.7 °F 1037.8 in NE 3.9 mph   54 % 0.0 in
14:09 15.7 °F 6.4 °F 1037.8 in NE 6.4 mph 6.4 mph 54 % 0.0 in
14:14 15.6 °F 6.3 °F 1037.8 in NE 13.0 mph 13.0 mph 54 % 0.0 in
14:19 15.7 °F 6.4 °F 1036.8 in NE 9.3 mph 9.3 mph 54 % 0.0 in
14:24 15.8 °F 6.2 °F 1036.8 in NE 9.3 mph 9.3 mph 53 % 0.0 in
14:29 15.8 °F 6.2 °F 1036.8 in NE 7.6 mph 7.6 mph 53 % 0.0 in
14:34 15.8 °F 6.2 °F 1037.8 in NE 7.4 mph 7.4 mph 53 % 0.0 in
14:39 15.9 °F 6.3 °F 1037.8 in NE 7.4 mph 7.4 mph 53 % 0.0 in
14:44 15.9 °F 6.3 °F 1037.8 in NE 13.0 mph 13.0 mph 53 % 0.0 in
14:49 16.0 °F 6.4 °F 1037.8 in NE 9.5 mph 9.5 mph 53 % 0.0 in
14:54 15.9 °F 6.1 °F 1037.8 in NE 7.4 mph 7.4 mph 52 % 0.0 in
14:59 16.0 °F 6.2 °F 1037.8 in NE 11.1 mph 11.1 mph 52 % 0.0 in
15:04 16.1 °F 6.2 °F 1036.8 in NE 7.4 mph 7.4 mph 52 % 0.0 in
15:09 16.1 °F 6.2 °F 1036.8 in NE 7.4 mph 7.4 mph 52 % 0.0 in
15:14 16.0 °F 6.2 °F 1036.8 in NE 10.3 mph 10.3 mph 52 % 0.0 in
15:19 15.9 °F 5.8 °F 1037.8 in NE 9.3 mph 9.3 mph 51 % 0.0 in
15:24 15.9 °F 6.1 °F 1037.8 in NE 9.3 mph 9.3 mph 52 % 0.0 in
15:29 15.8 °F 5.7 °F 1037.8 in NE 13.0 mph 13.0 mph 51 % 0.0 in
15:34 15.9 °F 6.1 °F 1036.8 in NE 9.5 mph 9.5 mph 52 % 0.0 in
15:39 15.8 °F 5.7 °F 1036.8 in NE 9.7 mph 9.7 mph 51 % 0.0 in
15:44 15.8 °F 5.7 °F 1036.8 in NE 7.4 mph 7.4 mph 51 % 0.0 in
15:49 15.8 °F 5.7 °F 1037.8 in NE 11.1 mph 11.1 mph 51 % 0.0 in
15:54 15.8 °F 5.7 °F 1037.8 in NE 14.8 mph 14.8 mph 51 % 0.0 in
15:59 15.7 °F 5.6 °F 1037.8 in NE 9.3 mph 9.3 mph 51 % 0.0 in
16:04 15.6 °F 5.5 °F 1037.8 in NE 16.7 mph 16.7 mph 51 % 0.0 in
16:09 15.5 °F 5.4 °F 1037.8 in NE 13.0 mph 13.0 mph 51 % 0.0 in
16:14 15.6 °F 5.5 °F 1037.8 in NE 13.0 mph 13.0 mph 51 % 0.0 in
16:19 15.4 °F 5.3 °F 1037.8 in NE 11.1 mph 11.1 mph 51 % 0.0 in
16:24 15.3 °F 5.2 °F 1037.8 in NE 7.4 mph 7.4 mph 51 % 0.0 in
16:29 15.3 °F 5.2 °F 1037.8 in NE 9.3 mph 9.3 mph 51 % 0.0 in
16:34 15.2 °F 5.1 °F 1036.8 in NE 11.1 mph 11.1 mph 51 % 0.0 in
16:35 15.2 °F 5.1 °F 1036.8 in NE 11.1 mph 11.1 mph 51 % 0.0 in
16:40 15.3 °F 5.2 °F 1036.8 in NE 9.3 mph 9.3 mph 51 % 0.0 in
16:45 15.2 °F 5.1 °F 1036.8 in NE 5.6 mph 5.6 mph 51 % 0.0 in
16:50 15.4 °F 5.6 °F 1037.8 in NE 5.6 mph 5.6 mph 52 % 0.0 in
16:55 15.4 °F 5.6 °F 1037.8 in NE 3.7 mph 3.7 mph 52 % 0.0 in
17:00 15.1 °F 5.1 °F 1037.8 in NE 5.6 mph 5.6 mph 51 % 0.0 in
17:05 15.3 °F 5.5 °F 1037.8 in NE 3.7 mph   52 % 0.0 in
17:10 15.4 °F 5.6 °F 1037.8 in NE 3.9 mph 3.9 mph 52 % 0.0 in
17:15 15.3 °F 5.5 °F 1037.8 in NE 3.7 mph 3.7 mph 52 % 0.0 in
17:20 15.5 °F 5.7 °F 1037.8 in NE 3.7 mph 3.7 mph 52 % 0.0 in
17:25 15.5 °F 5.9 °F 1037.8 in NE 1.9 mph   53 % 0.0 in
17:30 15.2 °F 5.7 °F 1037.8 in NE 1.9 mph 1.9 mph 53 % 0.0 in
17:35 15.1 °F 5.6 °F 1037.8 in NE 1.9 mph   53 % 0.0 in
17:40 14.9 °F 5.4 °F 1037.8 in Calm     53 % 0.0 in
17:45 14.8 °F 5.3 °F 1037.8 in Calm     53 % 0.0 in
17:50 14.6 °F 5.1 °F 1037.8 in Calm     53 % 0.0 in
17:55 14.3 °F 4.8 °F 1037.8 in Calm     53 % 0.0 in
18:00 14.1 °F 4.7 °F 1037.8 in NE 1.9 mph 2.3 mph 53 % 0.0 in
18:05 14.0 °F 4.6 °F 1037.8 in NE 2.6 mph   53 % 0.0 in
18:10 13.7 °F 4.6 °F 1037.8 in NE 2.6 mph 2.6 mph 54 % 0.0 in
18:15 13.5 °F 4.4 °F 1037.8 in NE 1.9 mph   54 % 0.0 in
18:20 13.3 °F 4.2 °F 1037.8 in Calm     54 % 0.0 in
18:25 13.1 °F 4.0 °F 1037.8 in Calm   3.2 mph 54 % 0.0 in
18:30 12.9 °F 4.1 °F 1037.8 in Calm     55 % 0.0 in
18:35 12.8 °F 4.0 °F 1037.8 in Calm   3.2 mph 55 % 0.0 in
18:40 12.9 °F 4.1 °F 1037.8 in NE 3.7 mph 3.7 mph 55 % 0.0 in
18:45 12.8 °F 4.0 °F 1037.8 in NE 1.4 mph   55 % 0.0 in
18:50 12.5 °F 3.9 °F 1037.8 in NE 1.6 mph 1.6 mph 56 % 0.0 in
18:55 12.3 °F 3.8 °F 1037.8 in Calm   1.6 mph 56 % 0.0 in
19:00 12.1 °F 3.6 °F 1037.8 in Calm     56 % 0.0 in
19:05 12.0 °F 3.7 °F 1038.8 in Calm   1.6 mph 57 % 0.0 in
19:10 11.7 °F 3.4 °F 1038.8 in NE 1.6 mph 3.2 mph 57 % 0.0 in
19:15 11.5 °F 3.5 °F 1038.8 in Calm   3.2 mph 58 % 0.0 in
19:20 11.4 °F 3.4 °F 1038.8 in Calm     58 % 0.0 in
19:25 11.4 °F 3.4 °F 1038.8 in NE 3.2 mph 4.8 mph 58 % 0.0 in
19:30 11.3 °F 3.6 °F 1038.8 in NE 1.6 mph 3.2 mph 59 % 0.0 in
19:35 11.2 °F 3.5 °F 1038.8 in NE 3.2 mph 4.8 mph 59 % 0.0 in
19:40 11.1 °F 3.6 °F 1038.8 in NE 1.6 mph 3.2 mph 60 % 0.0 in
19:45 11.0 °F 3.8 °F 1038.8 in NE 1.6 mph 3.2 mph 61 % 0.0 in
19:50 10.9 °F 3.9 °F 1038.8 in NE 1.6 mph 3.2 mph 62 % 0.0 in
19:55 10.8 °F 3.8 °F 1038.8 in NE 1.6 mph 4.8 mph 62 % 0.0 in
20:00 10.8 °F 4.1 °F 1038.8 in NE 3.2 mph 4.8 mph 63 % 0.0 in
20:05 10.8 °F 4.3 °F 1038.8 in NE 1.6 mph 3.2 mph 64 % 0.0 in
20:10 10.7 °F 4.2 °F 1038.8 in NE 1.6 mph 3.2 mph 64 % 0.0 in
20:15 10.6 °F 4.3 °F 1038.8 in NE 1.6 mph 3.2 mph 65 % 0.0 in
20:20 10.6 °F 4.3 °F 1038.8 in Calm   1.6 mph 65 % 0.0 in
20:25 10.5 °F 4.4 °F 1038.8 in Calm     66 % 0.0 in
20:30 10.4 °F 4.3 °F 1038.8 in NE 3.7 mph 3.7 mph 66 % 0.0 in
20:35 10.2 °F 4.2 °F 1038.8 in NE 1.6 mph 3.2 mph 66 % 0.0 in
20:40 10.1 °F 4.2 °F 1038.8 in NE 1.9 mph 2.6 mph 67 % 0.0 in
20:45 10.0 °F 4.2 °F 1038.8 in NE 3.9 mph 3.9 mph 67 % 0.0 in
20:50 9.8 °F 4.2 °F 1038.8 in NE 3.7 mph 3.7 mph 68 % 0.0 in
20:55 9.7 °F 4.1 °F 1038.8 in NE 1.9 mph   68 % 0.0 in
21:00 9.6 °F 4.0 °F 1038.8 in NE 1.9 mph 1.9 mph 68 % 0.0 in
21:05 9.4 °F 3.8 °F 1038.8 in NE 2.6 mph 2.6 mph 68 % 0.0 in
21:10 9.4 °F 3.8 °F 1038.8 in NE 3.9 mph 3.9 mph 68 % 0.0 in
21:15 9.3 °F 3.7 °F 1038.8 in NE 5.6 mph 5.6 mph 68 % 0.0 in
21:20 9.2 °F 3.6 °F 1038.8 in NE 5.6 mph 5.6 mph 68 % 0.0 in
21:25 9.2 °F 3.8 °F 1038.8 in NE 3.9 mph 3.9 mph 69 % 0.0 in
21:30 9.1 °F 3.7 °F 1038.8 in NE 3.7 mph 3.7 mph 69 % 0.0 in
21:35 9.1 °F 3.7 °F 1038.8 in NE 4.2 mph 4.2 mph 69 % 0.0 in
21:40 9.1 °F 3.7 °F 1038.8 in NE 3.2 mph 4.8 mph 69 % 0.0 in
21:45 9.1 °F 3.7 °F 1038.8 in NE 3.7 mph 3.7 mph 69 % 0.0 in
21:50 9.0 °F 3.6 °F 1038.8 in NE 3.7 mph 3.9 mph 69 % 0.0 in
21:55 9.0 °F 3.6 °F 1038.8 in NE 4.2 mph 4.2 mph 69 % 0.0 in
22:00 8.8 °F 3.4 °F 1038.8 in NE 3.2 mph 4.8 mph 69 % 0.0 in
22:05 8.7 °F 3.3 °F 1038.8 in NE 1.9 mph 1.9 mph 69 % 0.0 in
22:10 8.7 °F 3.6 °F 1038.8 in NE 1.9 mph   70 % 0.0 in
22:15 8.6 °F 3.2 °F 1038.8 in NE 1.9 mph   69 % 0.0 in
22:20 8.6 °F 3.2 °F 1038.8 in NE 3.7 mph 3.7 mph 69 % 0.0 in
22:25 8.5 °F 3.1 °F 1038.8 in NE 1.9 mph   69 % 0.0 in
22:30 8.5 °F 3.1 °F 1038.8 in NE 3.2 mph 3.2 mph 69 % 0.0 in
22:35 8.5 °F 3.1 °F 1038.8 in NE 5.6 mph 5.6 mph 69 % 0.0 in
22:40 8.4 °F 3.1 °F 1038.8 in NE 5.6 mph 5.6 mph 69 % 0.0 in
22:45 8.4 °F 3.1 °F 1038.8 in NE 3.7 mph 3.7 mph 69 % 0.0 in
22:50 8.4 °F 3.1 °F 1038.8 in NE 3.9 mph 3.9 mph 69 % 0.0 in
22:55 8.3 °F 2.9 °F 1038.8 in NE 4.7 mph 4.7 mph 69 % 0.0 in
23:00 8.2 °F 2.8 °F 1038.8 in NE 3.7 mph 3.7 mph 69 % 0.0 in
23:05 8.2 °F 2.8 °F 1038.8 in NE 3.7 mph 3.7 mph 69 % 0.0 in
23:10 8.1 °F 2.8 °F 1038.8 in NE 3.7 mph 3.7 mph 69 % 0.0 in
23:15 8.1 °F 2.8 °F 1038.8 in NE 3.7 mph 3.9 mph 69 % 0.0 in
23:20 8.0 °F 2.7 °F 1038.8 in NE 3.7 mph 3.7 mph 69 % 0.0 in
23:25 8.0 °F 2.7 °F 1038.8 in NE 3.7 mph 3.7 mph 69 % 0.0 in
23:30 7.9 °F 2.8 °F 1038.8 in NE 2.6 mph 2.6 mph 70 % 0.0 in
23:35 7.8 °F 2.7 °F 1038.8 in NE 3.7 mph 3.7 mph 70 % 0.0 in
23:40 7.7 °F 2.6 °F 1038.8 in NE 3.7 mph 3.7 mph 70 % 0.0 in
23:45 7.6 °F 2.5 °F 1038.8 in NE 1.9 mph   70 % 0.0 in
23:50 7.6 °F 2.5 °F 1038.8 in NE 1.9 mph 1.9 mph 70 % 0.0 in
23:55 7.5 °F 2.4 °F 1038.8 in NE 3.7 mph   70 % 0.0 in
Meteo Sesrovires
Elogis d' Weather Underground - 1.5 mb

Guio original per  Jim McMurry - jmcmurry@mwt.net Adaptat per a la plantilla per  Wim van der Kuil - Leuven-Template.eu

Trobareu la nostra informacio del temps tambe a:

Weather Underground

AWEKAS